Time;durP1;ratioP1;P1;durP2;ratioP2;P2;SDS_P1;SDS_P2;PMS_P1;PMS_P2;Temp;Humidity;BMP_temperature;BMP_pressure;BME280_temperature;BME280_humidity;BME280_pressure;Samples;Min_cycle;Max_cycle;Signal;HPM_P1;HPM_P2
2021/11/09 00:01:59;;;;;;;12.50;8.73;;;;;;;5.83;65.70;96391.78;5058797;28;20265;-82
2021/11/09 00:04:31;;;;;;;13.97;9.73;;;;;;;5.85;66.00;96396.75;5058675;28;20264;-82
2021/11/09 00:07:04;;;;;;;13.93;9.63;;;;;;;5.86;65.98;96385.59;5058549;28;20220;-83
2021/11/09 00:09:44;;;;;;;11.53;8.80;;;;;;;5.85;66.01;96386.53;5057607;28;20264;-85
2021/11/09 00:12:11;;;;;;;12.50;9.50;;;;;;;5.82;65.83;96382.47;5058121;28;20212;-85
2021/11/09 00:14:37;;;;;;;13.87;8.80;;;;;;;5.83;66.03;96391.78;5057947;28;20205;-84
2021/11/09 00:17:05;;;;;;;14.23;8.60;;;;;;;5.87;65.97;96388.03;5057792;28;20228;-84
2021/11/09 00:19:31;;;;;;;12.17;8.67;;;;;;;5.93;65.62;96389.31;5057291;28;20229;-82
2021/11/09 00:21:58;;;;;;;14.47;8.77;;;;;;;5.95;65.85;96381.50;5057565;28;20212;-85
2021/11/09 00:24:24;;;;;;;13.37;8.57;;;;;;;5.87;66.48;96385.47;5056724;28;20264;-81
2021/11/09 00:26:51;;;;;;;11.13;8.57;;;;;;;5.97;65.98;96379.59;5057596;28;20205;-84
2021/11/09 00:29:17;;;;;;;13.73;9.00;;;;;;;6.03;65.71;96384.22;5057752;28;20225;-83
2021/11/09 00:31:44;;;;;;;14.03;10.07;;;;;;;6.09;65.81;96392.19;5058544;28;20544;-79
2021/11/09 00:34:12;;;;;;;12.00;8.97;;;;;;;6.06;66.23;96389.88;5057677;28;20202;-84
2021/11/09 00:36:38;;;;;;;10.97;8.70;;;;;;;6.13;66.11;96397.84;5057504;28;20417;-83
2021/11/09 00:39:06;;;;;;;12.43;8.87;;;;;;;6.18;66.24;96400.81;5057633;28;20221;-84
2021/11/09 00:41:32;;;;;;;12.60;9.13;;;;;;;6.12;66.78;96401.34;5057479;28;20197;-83
2021/11/09 00:43:59;;;;;;;12.90;9.10;;;;;;;6.12;67.11;96401.34;5057269;28;20217;-83
2021/11/09 00:46:25;;;;;;;18.67;9.20;;;;;;;6.16;67.42;96400.13;5056880;28;20791;-85
2021/11/09 00:48:52;;;;;;;11.33;8.60;;;;;;;6.15;67.40;96398.53;5056866;28;20226;-81
2021/11/09 00:51:20;;;;;;;9.83;8.27;;;;;;;6.11;67.80;96403.09;5056705;28;20216;-84
2021/11/09 00:53:46;;;;;;;11.77;8.37;;;;;;;6.15;67.51;96404.47;5056906;28;20704;-83
2021/11/09 00:56:12;;;;;;;11.63;8.43;;;;;;;6.19;67.96;96407.56;5056614;28;20221;-80
2021/11/09 00:58:39;;;;;;;13.77;8.90;;;;;;;6.14;68.27;96400.28;5057127;28;20320;-82
2021/11/09 01:01:06;;;;;;;13.43;8.63;;;;;;;6.17;68.55;96396.63;5056684;28;20689;-82
2021/11/09 01:03:33;;;;;;;15.57;8.63;;;;;;;6.15;68.38;96404.47;5056416;28;20209;-80
2021/11/09 01:06:00;;;;;;;11.17;8.50;;;;;;;6.15;68.79;96403.66;5056553;28;20213;-84
2021/11/09 01:08:28;;;;;;;12.67;8.23;;;;;;;6.22;68.58;96400.44;5056364;28;20226;-81
2021/11/09 01:10:55;;;;;;;12.63;8.77;;;;;;;6.16;69.03;96397.56;5056310;28;20206;-82
2021/11/09 01:13:25;;;;;;;10.53;7.57;;;;;;;6.06;69.83;96401.84;5056550;28;20201;-82
2021/11/09 01:15:57;;;;;;;13.07;8.97;;;;;;;5.97;70.54;96397.50;5056536;28;20225;-83
2021/11/09 01:18:27;;;;;;;11.50;7.93;;;;;;;5.92;71.05;96399.66;5055679;28;20221;-81
2021/11/09 01:20:55;;;;;;;11.80;8.10;;;;;;;5.92;71.11;96399.66;5056012;28;20201;-82
2021/11/09 01:23:22;;;;;;;10.77;8.43;;;;;;;5.93;71.71;96404.63;5054613;28;20225;-80
2021/11/09 01:25:50;;;;;;;12.93;9.10;;;;;;;5.95;71.14;96399.41;5056294;28;20201;-83
2021/11/09 01:28:17;;;;;;;9.63;8.23;;;;;;;5.88;71.84;96401.63;5056092;28;20209;-84
2021/11/09 01:30:45;;;;;;;11.47;8.33;;;;;;;5.91;71.58;96395.47;5065172;28;20197;-80
2021/11/09 01:33:13;;;;;;;11.70;7.67;;;;;;;5.84;72.24;96390.84;5059865;28;20205;-84
2021/11/09 01:35:40;;;;;;;13.77;8.67;;;;;;;5.84;72.14;96393.38;5056221;28;20221;-82
2021/11/09 01:38:07;;;;;;;10.87;8.03;;;;;;;5.86;72.49;96386.41;5055530;28;20197;-81
2021/11/09 01:40:35;;;;;;;9.80;7.97;;;;;;;6.01;71.76;96373.31;5056019;28;20232;-82
2021/11/09 01:43:04;;;;;;;9.47;7.70;;;;;;;6.13;71.10;96378.22;5055646;28;20200;-84
2021/11/09 01:45:31;;;;;;;13.73;7.90;;;;;;;6.16;71.17;96388.16;5055587;28;20201;-80
2021/11/09 01:47:57;;;;;;;14.47;7.53;;;;;;;6.21;70.78;96391.16;5054798;28;20205;-82
2021/11/09 01:50:26;;;;;;;11.07;8.10;;;;;;;6.19;71.24;96387.09;5055720;28;20209;-83
2021/11/09 01:52:53;;;;;;;11.87;7.60;;;;;;;6.16;72.12;96392.47;5055433;28;20202;-81
2021/11/09 01:55:21;;;;;;;9.63;7.20;;;;;;;6.13;71.66;96390.19;5054759;28;20205;-84
2021/11/09 01:57:48;;;;;;;11.23;8.13;;;;;;;6.16;71.61;96400.13;5055015;28;20232;-84
2021/11/09 02:00:21;;;;;;;10.70;7.60;;;;;;;6.17;71.85;96401.75;5054647;28;20657;-84
2021/11/09 02:02:48;;;;;;;8.57;6.93;;;;;;;6.25;71.42;96386.59;5055508;28;20288;-82
2021/11/09 02:05:15;;;;;;;14.37;8.10;;;;;;;6.23;71.82;96386.72;5054766;28;20669;-82
2021/11/09 02:07:45;;;;;;;12.93;7.47;;;;;;;6.23;71.51;96386.72;5054869;28;20578;-81
2021/11/09 02:10:12;;;;;;;8.87;7.33;;;;;;;6.30;71.60;96381.09;5054736;28;20248;-83
2021/11/09 02:12:39;;;;;;;10.57;7.23;;;;;;;6.41;71.49;96378.41;5054932;28;20201;-83
2021/11/09 02:15:07;;;;;;;10.70;7.83;;;;;;;6.48;71.06;96379.53;5055053;28;20212;-80
2021/11/09 02:17:36;;;;;;;9.87;6.77;;;;;;;6.53;70.60;96383.31;5053222;28;20252;-82
2021/11/09 02:20:03;;;;;;;10.53;7.13;;;;;;;6.57;70.64;96378.72;5054734;28;20226;-83
2021/11/09 02:22:32;;;;;;;9.73;7.33;;;;;;;6.53;70.48;96372.25;5054498;28;20272;-81
2021/11/09 02:24:59;;;;;;;10.20;7.23;;;;;;;6.44;70.85;96371.28;5054492;28;20213;-82
2021/11/09 02:27:25;;;;;;;14.67;7.40;;;;;;;6.44;71.09;96376.41;5053741;28;20604;-83
2021/11/09 02:29:52;;;;;;;25.23;17.60;;;;;;;6.49;71.08;96376.03;5054722;28;20708;-83
2021/11/09 02:32:18;;;;;;;21.57;15.47;;;;;;;6.43;71.01;96376.53;5054169;28;20727;-80
2021/11/09 02:34:45;;;;;;;11.27;8.20;;;;;;;6.48;70.54;96387.19;5053785;28;20616;-83
2021/11/09 02:37:11;;;;;;;10.87;7.80;;;;;;;6.49;70.64;96378.59;5053594;28;20221;-82
2021/11/09 02:39:39;;;;;;;9.17;6.93;;;;;;;6.48;70.29;96380.31;5054446;28;20253;-81
2021/11/09 02:42:11;;;;;;;12.10;6.80;;;;;;;6.42;70.98;96390.25;5053741;28;20204;-81
2021/11/09 02:44:37;;;;;;;11.23;6.83;;;;;;;6.35;70.82;96395.09;5054626;28;20255;-83
2021/11/09 02:47:07;;;;;;;12.20;6.83;;;;;;;6.39;70.38;96395.63;5054239;28;20719;-82
2021/11/09 02:49:45;;;;;;;8.57;7.13;;;;;;;6.35;70.75;96389.97;5054684;28;20319;-82
2021/11/09 02:52:11;;;;;;;8.43;7.10;;;;;;;6.19;71.10;96405.81;5054250;28;20209;-84
2021/11/09 02:54:42;;;;;;;10.63;6.90;;;;;;;6.16;71.44;96407.81;5053899;28;20209;-82
2021/11/09 02:57:18;;;;;;;10.33;7.20;;;;;;;6.11;71.39;96408.22;5054304;28;20291;-84
2021/11/09 02:59:52;;;;;;;10.13;7.20;;;;;;;6.10;71.05;96406.59;5054473;28;20221;-80
2021/11/09 03:02:31;;;;;;;9.47;7.03;;;;;;;6.12;71.36;96409.03;5054638;28;20200;-79
2021/11/09 03:05:06;;;;;;;10.27;7.27;;;;;;;6.05;71.41;96403.59;5054432;28;20201;-81
2021/11/09 03:07:38;;;;;;;13.43;7.50;;;;;;;6.02;71.30;96396.19;5056629;28;20200;-84
2021/11/09 03:10:18;;;;;;;10.80;6.70;;;;;;;6.04;71.38;96401.16;5058765;28;20217;-81
2021/11/09 03:12:45;;;;;;;8.70;6.53;;;;;;;6.11;70.76;96405.66;5058325;28;20264;-81
2021/11/09 03:15:14;;;;;;;9.10;6.33;;;;;;;6.05;71.04;96395.94;5058632;28;20201;-81
2021/11/09 03:17:45;;;;;;;9.43;5.90;;;;;;;6.10;70.85;96395.56;5057974;28;20225;-84
2021/11/09 03:20:20;;;;;;;10.00;6.50;;;;;;;6.10;70.67;96398.91;5058187;28;20221;-84
2021/11/09 03:45:04;;;;;;;9.90;7.00;;;;;;;6.06;69.73;96410.34;5056904;28;20201;-84
2021/11/09 03:47:32;;;;;;;10.77;6.53;;;;;;;5.99;69.35;96406.66;5056519;28;20198;-81
2021/11/09 03:49:59;;;;;;;8.60;5.83;;;;;;;6.01;69.66;96404.78;5056516;28;20301;-80
2021/11/09 03:52:29;;;;;;;11.13;6.93;;;;;;;5.92;69.75;96409.88;5055950;28;20593;-83
2021/11/09 03:55:01;;;;;;;10.87;7.10;;;;;;;5.79;69.93;96408.28;5055656;28;20288;-82
2021/11/09 03:57:31;;;;;;;9.07;6.90;;;;;;;5.75;69.99;96412.06;5055925;28;20292;-82
2021/11/09 04:00:08;;;;;;;9.00;6.53;;;;;;;5.73;70.00;96416.47;5056189;28;20279;-84
2021/11/09 04:02:45;;;;;;;8.70;6.70;;;;;;;5.78;69.60;96406.66;5055889;28;20254;-84
2021/11/09 04:05:14;;;;;;;8.50;6.47;;;;;;;5.79;69.62;96420.25;5055516;28;20213;-81
2021/11/09 04:07:46;;;;;;;9.07;7.17;;;;;;;5.81;69.25;96418.38;5055982;28;20209;-84
2021/11/09 04:10:22;;;;;;;11.83;7.60;;;;;;;5.77;69.17;96422.94;5056331;28;20218;-83
2021/11/09 04:12:58;;;;;;;10.10;7.20;;;;;;;5.71;69.28;96420.91;5056004;28;20665;-82
2021/11/09 04:18:37;;;;;;;9.20;6.90;;;;;;;5.69;69.20;96427.06;5043715;28;20208;-80
2021/11/09 04:21:15;;;;;;;8.97;7.57;;;;;;;5.72;68.93;96426.81;5055935;28;20201;-84
2021/11/09 04:29:20;;;;;;;11.67;7.93;;;;;;;5.63;69.12;96423.25;5055471;28;20605;-82
2021/11/09 04:35:03;;;;;;;8.37;7.20;;;;;;;5.53;69.43;96430.88;5055418;28;20220;-81
2021/11/09 04:52:00;;;;;;;9.00;7.60;;;;;;;5.29;71.03;96439.69;5026439;28;20210;-80
2021/11/09 05:02:47;;;;;;;8.77;7.37;;;;;;;5.43;71.01;96437.66;5054655;28;20718;-81
2021/11/09 05:10:46;;;;;;;12.90;7.07;;;;;;;5.23;73.79;96438.44;5032610;28;20198;-82
2021/11/09 05:13:13;;;;;;;12.47;8.33;;;;;;;5.30;73.19;96437.03;5033885;28;20202;-82
2021/11/09 05:15:40;;;;;;;9.57;7.20;;;;;;;5.31;73.80;96438.66;5034442;28;20244;-81
2021/11/09 05:18:08;;;;;;;9.93;7.03;;;;;;;5.35;73.03;96439.22;5033677;28;20233;-81
2021/11/09 05:20:34;;;;;;;10.23;6.73;;;;;;;5.31;73.40;96436.09;5033858;28;20206;-82
2021/11/09 05:23:01;;;;;;;10.63;6.70;;;;;;;5.22;74.00;96440.16;5040446;28;20843;-82
2021/11/09 05:25:28;;;;;;;11.50;7.10;;;;;;;5.28;74.40;96441.44;5053997;28;20212;-81
2021/11/09 05:27:55;;;;;;;10.43;6.83;;;;;;;5.36;73.51;96446.75;5053403;28;20232;-82
2021/11/09 05:30:22;;;;;;;10.63;6.87;;;;;;;5.49;73.02;96455.03;5051737;28;20233;-80
2021/11/09 05:32:52;;;;;;;8.50;6.10;;;;;;;5.98;96.23;96452.78;5052106;28;20620;-84
2021/11/09 05:35:22;;;;;;;10.03;6.57;;;;;;;6.17;75.08;96445.22;5049282;28;20563;-83
2021/11/09 05:37:50;;;;;;;9.63;6.60;;;;;;;6.12;73.50;96437.16;5046090;28;20225;-85
2021/11/09 05:40:19;;;;;;;11.37;6.93;;;;;;;6.03;72.60;96436.16;5056339;28;20214;-84
2021/11/09 05:42:46;;;;;;;10.97;6.80;;;;;;;6.05;72.23;96444.50;5051998;28;20292;-83
2021/11/09 05:45:14;;;;;;;11.03;6.93;;;;;;;5.96;72.55;96444.47;5056049;28;20216;-85
2021/11/09 05:47:40;;;;;;;12.00;6.80;;;;;;;5.80;72.87;96443.13;5051049;28;20205;-81
2021/11/09 05:50:07;;;;;;;12.50;7.70;;;;;;;5.50;74.76;96437.97;5051147;28;20224;-83
2021/11/09 05:52:35;;;;;;;11.83;7.43;;;;;;;5.37;75.84;96437.34;5051638;28;20212;-83
2021/11/09 05:55:02;;;;;;;11.10;7.13;;;;;;;5.22;76.86;96432.50;5053074;28;20205;-83
2021/11/09 05:57:28;;;;;;;13.10;7.73;;;;;;;5.12;82.53;96435.94;5051133;28;20221;-84
2021/11/09 05:59:55;;;;;;;10.47;8.00;;;;;;;5.16;81.12;96438.13;5052192;28;20351;-81
2021/11/09 06:02:22;;;;;;;11.63;8.03;;;;;;;5.12;78.91;96435.94;5052653;28;20603;-83
2021/11/09 06:04:53;;;;;;;20.97;14.40;;;;;;;5.15;78.80;96428.84;5051829;28;20208;-82
2021/11/09 06:07:20;;;;;;;13.20;9.20;;;;;;;5.24;78.02;96429.03;5051864;28;20227;-84
2021/11/09 06:09:48;;;;;;;13.57;8.13;;;;;;;5.33;76.94;96431.66;5051396;28;20218;-82
2021/11/09 06:12:14;;;;;;;11.30;7.87;;;;;;;5.35;77.32;96434.91;5052117;28;20202;-82
2021/11/09 06:14:40;;;;;;;14.10;7.90;;;;;;;5.68;95.30;96443.31;5051523;28;20205;-83
2021/11/09 06:17:07;;;;;;;12.03;7.73;;;;;;;6.01;80.16;96438.03;5051146;28;20217;-84
2021/11/09 06:19:33;;;;;;;9.60;7.70;;;;;;;6.02;74.99;96441.38;5051548;28;20229;-82
2021/11/09 06:22:02;;;;;;;12.73;8.47;;;;;;;5.91;74.23;96447.41;5052383;28;20584;-84
2021/11/09 06:24:29;;;;;;;11.83;7.33;;;;;;;5.80;74.19;96448.22;5050576;28;20784;-85
2021/11/09 06:26:57;;;;;;;13.57;8.30;;;;;;;5.70;74.22;96457.59;5052513;28;20339;-80
2021/11/09 06:29:23;;;;;;;14.53;8.30;;;;;;;5.64;74.42;96457.28;5050749;28;20715;-83
2021/11/09 06:31:50;;;;;;;12.47;7.50;;;;;;;5.61;74.19;96460.06;5051302;28;20205;-83
2021/11/09 06:34:17;;;;;;;13.17;7.83;;;;;;;5.52;73.69;96462.47;5058389;28;20565;-83
2021/11/09 06:36:43;;;;;;;10.90;7.17;;;;;;;5.44;73.88;96464.81;5051286;28;20364;-84
2021/11/09 06:39:10;;;;;;;10.33;7.40;;;;;;;5.51;72.83;96462.56;5050605;28;20221;-83
2021/11/09 06:41:36;;;;;;;10.63;7.03;;;;;;;5.59;72.34;96475.53;5050760;28;20201;-85
2021/11/09 06:44:05;;;;;;;12.17;7.00;;;;;;;5.75;71.49;96475.94;5051089;28;20236;-83
2021/11/09 06:46:31;;;;;;;9.63;7.27;;;;;;;5.88;70.98;96474.00;5051684;28;20275;-83
2021/11/09 06:48:58;;;;;;;7.50;6.80;;;;;;;6.03;70.85;96478.78;5050678;28;20232;-83
2021/11/09 06:51:24;;;;;;;13.60;7.77;;;;;;;6.16;69.30;96493.00;5050709;28;20216;-83
2021/11/09 06:53:52;;;;;;;13.73;7.67;;;;;;;6.27;68.39;96486.19;5050986;28;20205;-84
2021/11/09 06:56:18;;;;;;;11.47;7.37;;;;;;;6.31;68.04;96493.50;5050103;28;20202;-82
2021/11/09 06:58:45;;;;;;;12.17;8.10;;;;;;;6.05;68.50;96489.72;5051338;28;20221;-83
2021/11/09 07:01:13;;;;;;;12.93;8.10;;;;;;;5.80;69.21;96501.09;5050999;28;20288;-80
2021/11/09 07:03:39;;;;;;;13.17;8.53;;;;;;;5.57;70.42;96507.25;5046793;28;20688;-81
2021/11/09 07:06:06;;;;;;;12.13;8.77;;;;;;;5.30;71.68;96507.69;5051871;28;20259;-84
2021/11/09 07:08:32;;;;;;;12.83;9.00;;;;;;;5.19;72.91;96506.00;5042089;28;20225;-84
2021/11/09 07:10:59;;;;;;;11.03;9.10;;;;;;;4.98;73.92;96500.84;5050985;28;20216;-86
2021/11/09 07:13:26;;;;;;;11.47;9.67;;;;;;;4.80;74.94;96513.28;5050141;28;20251;-84
2021/11/09 07:15:52;;;;;;;12.80;9.83;;;;;;;4.84;75.68;96509.53;5052911;28;20212;-84
2021/11/09 07:18:20;;;;;;;11.63;8.83;;;;;;;4.99;75.02;96512.66;5052419;28;20228;-82
2021/11/09 07:20:47;;;;;;;10.53;8.93;;;;;;;5.13;74.71;96502.19;5052945;28;20292;-84
2021/11/09 07:23:13;;;;;;;12.90;9.57;;;;;;;5.31;74.52;96510.13;5051522;28;20228;-81
2021/11/09 07:25:40;;;;;;;10.40;8.83;;;;;;;5.51;73.83;96514.47;5044800;28;20607;-84
2021/11/09 07:28:07;;;;;;;12.90;9.00;;;;;;;5.64;73.59;96510.94;5052303;28;20681;-84
2021/11/09 07:30:41;;;;;;;11.63;9.00;;;;;;;5.67;73.66;96505.56;5052279;28;20719;-81
2021/11/09 07:33:08;;;;;;;11.70;8.97;;;;;;;5.79;73.77;96513.06;5053561;28;20645;-85
2021/11/09 07:35:36;;;;;;;10.90;8.50;;;;;;;5.81;73.93;96511.19;5052271;28;20213;-81
2021/11/09 07:38:03;;;;;;;10.90;8.30;;;;;;;5.91;74.01;96501.06;5052114;28;20807;-84
2021/11/09 07:40:29;;;;;;;12.00;7.33;;;;;;;5.78;74.44;96503.75;5052608;28;20205;-84
2021/11/09 07:42:56;;;;;;;10.47;7.37;;;;;;;5.95;74.56;96505.00;5053970;28;20209;-84
2021/11/09 07:45:24;;;;;;;9.17;7.23;;;;;;;5.96;74.96;96503.25;5056585;28;20197;-84
2021/11/09 07:47:54;;;;;;;9.37;7.50;;;;;;;5.84;75.04;96503.28;5053060;28;20224;-85
2021/11/09 07:50:21;;;;;;;7.93;7.13;;;;;;;5.98;75.05;96514.94;5052156;28;20229;-83
2021/11/09 07:52:52;;;;;;;10.63;7.57;;;;;;;6.41;72.87;96503.75;5052834;28;20206;-82
2021/11/09 07:55:20;;;;;;;11.10;7.30;;;;;;;6.71;71.72;96492.69;5055883;28;20208;-84
2021/11/09 07:57:49;;;;;;;9.60;7.50;;;;;;;6.83;70.83;96499.31;5055718;28;20692;-84
2021/11/09 08:00:24;;;;;;;10.33;7.40;;;;;;;7.03;69.49;96495.88;5055554;28;20221;-82
2021/11/09 08:03:02;;;;;;;8.83;7.37;;;;;;;7.04;69.30;96496.69;5055632;28;20220;-83
2021/11/09 08:05:33;;;;;;;9.93;7.30;;;;;;;7.26;69.14;96496.44;5054586;28;20856;-83
2021/11/09 08:08:06;;;;;;;9.90;7.30;;;;;;;7.18;68.49;96499.66;5053308;28;20278;-81
2021/11/09 08:10:32;;;;;;;13.70;7.83;;;;;;;7.09;69.17;96494.53;5054943;28;20224;-84
2021/11/09 08:12:59;;;;;;;8.43;6.63;;;;;;;7.34;68.69;96499.13;5054146;28;20256;-83
2021/11/09 08:15:26;;;;;;;8.57;6.97;;;;;;;7.23;68.43;96491.59;5053163;28;20206;-80
2021/11/09 08:17:52;;;;;;;9.13;7.50;;;;;;;7.32;68.05;96501.00;5052999;28;20236;-83
2021/11/09 08:20:19;;;;;;;9.43;7.03;;;;;;;7.30;67.67;96497.81;5052584;28;20221;-85
2021/11/09 08:22:46;;;;;;;9.97;7.67;;;;;;;7.24;68.62;96494.00;5053438;28;20280;-84
2021/11/09 08:25:15;;;;;;;9.93;6.93;;;;;;;7.25;68.18;96497.38;5053104;28;20297;-81
2021/11/09 08:27:42;;;;;;;7.77;6.93;;;;;;;7.27;68.75;96496.31;5055235;28;20204;-81
2021/11/09 08:30:09;;;;;;;10.37;6.60;;;;;;;7.42;68.04;96493.34;5053081;28;20232;-82
2021/11/09 08:32:36;;;;;;;8.77;6.70;;;;;;;7.59;68.08;96496.03;5048405;28;20205;-84
2021/11/09 08:35:03;;;;;;;9.23;7.50;;;;;;;7.61;67.47;96490.78;5056559;28;20213;-83
2021/11/09 08:37:31;;;;;;;11.87;7.47;;;;;;;7.68;67.04;96491.88;5051470;28;20233;-84
2021/11/09 08:39:58;;;;;;;11.10;6.60;;;;;;;7.85;66.27;96490.38;5055480;28;20225;-85
2021/11/09 08:42:29;;;;;;;9.30;7.27;;;;;;;7.84;65.98;96492.13;5052180;28;20205;-84
2021/11/09 08:45:03;;;;;;;15.67;7.00;;;;;;;7.92;66.25;96491.41;5055667;28;20604;-85
2021/11/09 08:47:33;;;;;;;8.03;7.23;;;;;;;7.86;66.33;96490.22;5052937;28;20197;-84
2021/11/09 08:49:59;;;;;;;7.70;5.97;;;;;;;7.89;65.98;96492.50;5055219;28;20241;-82
2021/11/09 08:52:30;;;;;;;7.17;6.37;;;;;;;7.79;66.10;96501.97;5052465;28;20205;-81
2021/11/09 08:55:11;;;;;;;8.90;6.63;;;;;;;7.83;65.95;96505.06;5052743;28;20580;-82
2021/11/09 09:05:49;;;;;;;7.93;6.60;;;;;;;8.24;65.04;96516.75;5051229;28;20244;-84
2021/11/09 09:08:15;;;;;;;9.45;7.40;;;;;;;8.34;64.67;96509.03;5051277;28;20827;-84
2021/11/09 09:10:41;;;;;;;8.37;7.10;;;;;;;8.42;64.55;96516.88;5051506;28;20213;-84
2021/11/09 09:13:09;;;;;;;8.90;6.50;;;;;;;8.44;64.32;96517.53;5052283;28;20201;-85
2021/11/09 09:15:37;;;;;;;8.47;7.00;;;;;;;8.55;63.68;96519.91;5051999;28;20201;-82
2021/11/09 09:18:04;;;;;;;9.33;6.87;;;;;;;8.49;64.00;96518.72;5052500;28;20310;-82
2021/11/09 09:20:37;;;;;;;7.63;6.57;;;;;;;8.47;63.89;96522.34;5053195;28;20223;-84
2021/11/09 09:23:07;;;;;;;8.40;7.33;;;;;;;8.47;64.07;96520.59;5047608;28;20641;-84
2021/11/09 09:53:43;;;;;;;8.00;6.40;;;;;;;9.69;60.95;96506.53;5051125;28;21017;-85
2021/11/09 09:56:14;;;;;;;10.80;6.93;;;;;;;9.47;61.08;96512.09;5052895;28;20208;-85
2021/11/09 09:58:41;;;;;;;7.77;6.47;;;;;;;9.26;61.92;96500.34;5052327;28;20224;-83
2021/11/09 10:01:09;;;;;;;12.57;5.97;;;;;;;9.42;62.09;96504.03;5052847;28;20207;-85
2021/11/09 10:03:38;;;;;;;9.83;5.57;;;;;;;9.77;60.97;96503.22;5051267;28;20193;-85
2021/11/09 10:06:06;;;;;;;6.27;5.60;;;;;;;9.60;60.85;96504.84;5052162;28;20197;-85
2021/11/09 10:08:40;;;;;;;9.17;5.60;;;;;;;9.92;61.06;96506.88;5051773;28;20423;-85
2021/11/09 10:11:07;;;;;;;8.00;5.70;;;;;;;9.91;60.50;96502.69;5052229;28;20202;-84
2021/11/09 10:13:40;;;;;;;8.07;5.60;;;;;;;9.74;60.47;96498.38;5051756;28;20201;-84
2021/11/09 10:16:16;;;;;;;8.73;5.60;;;;;;;9.58;61.40;96501.63;5051658;28;20197;-84
2021/11/09 10:18:43;;;;;;;7.07;5.60;;;;;;;9.60;61.28;96487.66;5043872;28;20275;-85
2021/11/09 10:21:12;;;;;;;6.03;5.20;;;;;;;9.51;61.73;96491.09;5052289;28;20263;-86
2021/11/09 10:23:39;;;;;;;6.50;5.63;;;;;;;9.51;61.31;96478.25;5051399;28;20225;-85
2021/11/09 10:26:10;;;;;;;8.10;4.77;;;;;;;9.56;59.60;96486.34;5051801;28;20239;-81
2021/11/09 10:28:37;;;;;;;6.90;4.10;;;;;;;9.49;59.90;96494.78;5051267;28;20233;-84
2021/11/09 10:31:07;;;;;;;4.70;3.77;;;;;;;9.41;59.21;96482.69;5051931;28;20208;-84
2021/11/09 10:33:39;;;;;;;6.10;4.17;;;;;;;9.44;59.18;96489.25;5051196;28;20320;-84
2021/11/09 10:36:19;;;;;;;6.63;3.80;;;;;;;9.28;59.21;96484.78;5051003;28;20201;-86
2021/11/09 10:38:47;;;;;;;6.00;4.03;;;;;;;9.34;59.50;96477.31;5043771;28;20251;-86
2021/11/09 10:41:14;;;;;;;5.70;4.43;;;;;;;9.36;59.42;96479.72;5051270;28;20266;-84
2021/11/09 10:43:41;;;;;;;7.33;4.30;;;;;;;9.39;59.62;96473.50;5044290;28;20206;-85
2021/11/09 10:46:08;;;;;;;5.13;4.33;;;;;;;9.76;59.00;96465.59;5051120;28;20252;-85
2021/11/09 10:48:35;;;;;;;4.87;4.00;;;;;;;10.16;58.52;96467.63;5052208;28;20217;-86
2021/11/09 10:51:03;;;;;;;7.67;4.50;;;;;;;10.41;57.00;96471.16;5054214;28;20197;-85
2021/11/09 10:53:33;;;;;;;6.67;4.17;;;;;;;10.39;56.12;96469.53;5050606;28;20229;-84
2021/11/09 10:56:09;;;;;;;8.53;4.20;;;;;;;10.28;56.82;96469.00;5052000;28;20293;-83
2021/11/09 10:59:02;;;;;;;8.53;4.87;;;;;;;10.36;56.62;96471.66;5050121;28;20232;-83
2021/11/09 11:04:15;;;;;;;6.33;3.90;;;;;;;10.52;55.59;96466.56;5050555;28;20252;-81
2021/11/09 11:06:44;;;;;;;5.37;3.80;;;;;;;10.49;55.62;96459.16;5040994;28;20205;-83
2021/11/09 11:09:19;;;;;;;5.60;3.53;;;;;;;10.36;54.93;96453.63;5050820;28;20245;-84
2021/11/09 11:11:48;;;;;;;7.10;3.20;;;;;;;10.29;54.56;96453.41;5051425;28;20197;-85
2021/11/09 11:14:17;;;;;;;4.50;3.27;;;;;;;10.23;55.68;96451.44;5050759;28;20208;-83
2021/11/09 11:16:47;;;;;;;6.27;3.50;;;;;;;10.34;55.56;96455.53;5051065;28;20696;-83
2021/11/09 11:19:17;;;;;;;6.63;3.30;;;;;;;10.53;54.31;96462.22;5050573;28;20212;-85
2021/11/09 11:21:44;;;;;;;6.97;3.90;;;;;;;10.59;55.17;96456.44;5043832;28;20758;-85
2021/11/09 11:24:13;;;;;;;7.47;3.80;;;;;;;10.60;54.64;96443.41;5050282;28;20286;-80
2021/11/09 11:26:40;;;;;;;4.47;2.57;;;;;;;11.03;54.86;96454.50;5042110;28;20200;-84
2021/11/09 11:29:07;;;;;;;6.33;3.17;;;;;;;11.04;53.27;96441.44;5046842;28;20222;-85
2021/11/09 11:31:34;;;;;;;4.47;2.73;;;;;;;11.30;52.27;96446.50;5054023;28;20218;-86
2021/11/09 11:34:01;;;;;;;4.27;2.53;;;;;;;11.25;50.56;96446.16;5053656;28;20197;-83
2021/11/09 11:36:29;;;;;;;2.77;2.53;;;;;;;11.10;51.20;96439.22;5052852;28;20665;-84
2021/11/09 11:38:59;;;;;;;3.50;2.37;;;;;;;10.93;50.23;96448.69;5053150;28;20217;-83
2021/11/09 11:41:32;;;;;;;5.03;2.67;;;;;;;10.77;51.29;96451.22;5053522;28;20190;-82
2021/11/09 11:44:01;;;;;;;4.63;2.80;;;;;;;10.73;51.20;96438.66;5054967;28;20207;-86
2021/11/09 11:46:45;;;;;;;5.57;3.03;;;;;;;10.75;51.62;96448.00;5051472;28;20587;-85
2021/11/09 11:49:16;;;;;;;5.80;2.97;;;;;;;10.72;51.42;96443.94;5050377;28;20595;-86
2021/11/09 11:52:03;;;;;;;5.67;3.17;;;;;;;10.56;52.16;96442.13;5054725;28;20248;-85
2021/11/09 11:55:10;;;;;;;6.77;3.43;;;;;;;10.68;52.64;96442.63;5054311;28;20197;-81
2021/11/09 11:57:44;;;;;;;4.20;3.00;;;;;;;10.86;52.12;96430.47;5045306;28;20220;-83
2021/11/09 12:00:45;;;;;;;4.80;3.13;;;;;;;10.94;51.76;96440.81;5054227;28;20312;-84
2021/11/09 12:03:35;;;;;;;5.93;3.30;;;;;;;11.29;52.85;96434.56;4993320;28;20676;-81
2021/11/09 12:06:02;;;;;;;5.63;3.13;;;;;;;11.71;51.41;96438.78;5046833;28;20955;-84
2021/11/09 12:08:39;;;;;;;7.83;3.90;;;;;;;11.62;51.71;96437.16;5053977;28;20228;-82
2021/11/09 12:11:07;;;;;;;4.77;3.10;;;;;;;11.79;49.94;96432.81;5056056;28;20201;-84
2021/11/09 12:13:54;;;;;;;3.63;3.03;;;;;;;12.13;50.87;96425.66;5055684;28;20221;-82
2021/11/09 12:16:47;;;;;;;5.87;3.70;;;;;;;12.37;50.30;96428.16;5054260;28;20194;-84
2021/11/09 12:19:55;;;;;;;4.87;3.73;;;;;;;12.62;49.80;96431.47;5053411;28;20319;-80
2021/11/09 12:22:25;;;;;;;6.77;4.07;;;;;;;12.53;48.96;96439.41;5050854;28;20219;-82
2021/11/09 12:24:57;;;;;;;5.63;4.70;;;;;;;12.01;50.33;96450.22;5054496;28;20237;-84
2021/11/09 12:27:30;;;;;;;5.77;4.37;;;;;;;12.15;49.97;96443.56;5053188;28;20579;-83
2021/11/09 12:29:58;;;;;;;5.47;3.63;;;;;;;12.47;49.25;96438.31;5047804;28;20224;-83
2021/11/09 12:32:41;;;;;;;5.97;4.40;;;;;;;12.80;48.61;96444.97;5060408;28;20194;-81
2021/11/09 12:35:26;;;;;;;7.27;4.10;;;;;;;12.50;48.96;96435.41;5060794;28;20232;-84
2021/11/09 12:38:09;;;;;;;4.80;4.10;;;;;;;12.55;48.85;96430.53;5055618;28;20644;-82
2021/11/09 12:40:38;;;;;;;6.13;3.83;;;;;;;12.83;48.73;96427.50;5050559;28;20540;-84
2021/11/09 12:43:20;;;;;;;5.17;3.80;;;;;;;13.14;48.11;96416.16;5038221;28;20198;-82
2021/11/09 12:45:51;;;;;;;7.13;4.40;;;;;;;13.24;47.47;96408.22;5045117;28;20239;-82
2021/11/09 12:48:24;;;;;;;7.53;4.30;;;;;;;13.40;47.04;96395.16;5050862;28;20620;-82
2021/11/09 12:50:55;;;;;;;5.17;4.17;;;;;;;13.39;46.77;96400.50;5054291;28;20215;-83
2021/11/09 12:53:24;;;;;;;5.53;4.27;;;;;;;13.25;46.82;96399.50;5053895;28;20201;-82
2021/11/09 12:56:08;;;;;;;4.87;4.30;;;;;;;12.77;46.93;96401.34;5054245;28;20205;-84
2021/11/09 12:58:38;;;;;;;5.70;4.30;;;;;;;12.05;48.44;96400.69;5053092;28;20221;-85
2021/11/09 13:01:18;;;;;;;5.70;4.37;;;;;;;11.62;49.93;96395.88;5054227;28;20228;-83
2021/11/09 13:04:04;;;;;;;6.33;4.30;;;;;;;11.54;49.92;96390.75;5053549;28;20738;-85
2021/11/09 13:06:42;;;;;;;4.60;4.20;;;;;;;11.65;49.59;96385.25;5053407;28;20202;-85
2021/11/09 13:09:15;;;;;;;5.97;4.47;;;;;;;11.84;49.98;96379.75;5053056;28;20217;-85
2021/11/09 13:11:48;;;;;;;4.53;4.13;;;;;;;12.26;49.14;96373.50;5054527;28;20201;-84
2021/11/09 13:14:15;;;;;;;6.70;4.00;;;;;;;12.20;48.52;96384.50;5053846;28;20579;-85
2021/11/09 13:16:43;;;;;;;6.10;4.23;;;;;;;11.89;49.31;96381.84;5053483;28;20209;-83
2021/11/09 13:19:10;;;;;;;7.07;4.67;;;;;;;11.90;49.42;96386.84;5052976;28;20275;-83
2021/11/09 13:21:38;;;;;;;5.77;4.23;;;;;;;11.94;49.57;96387.31;5053123;28;20209;-85
2021/11/09 13:24:05;;;;;;;5.07;4.30;;;;;;;12.21;49.38;96384.34;5066723;28;20228;-83
2021/11/09 13:26:32;;;;;;;6.27;4.37;;;;;;;12.30;49.12;96398.03;5055332;28;20499;-84
2021/11/09 13:29:06;;;;;;;7.13;4.63;;;;;;;12.07;48.93;96396.16;5053139;28;20221;-80
2021/11/09 13:31:34;;;;;;;6.10;4.40;;;;;;;11.95;49.35;96394.88;5055091;28;20583;-84